createdAt,value
2022-11-23T00:01:23.550Z,17.70
2022-11-23T00:03:51.915Z,17.70
2022-11-23T00:06:18.959Z,17.70
2022-11-23T00:08:45.853Z,17.70
2022-11-23T00:11:12.854Z,17.70
2022-11-23T00:13:40.692Z,17.70
2022-11-23T00:19:16.506Z,17.70
2022-11-23T00:21:43.271Z,17.70
2022-11-23T00:24:12.736Z,17.70
2022-11-23T00:26:39.572Z,17.70
2022-11-23T00:29:07.493Z,17.70
2022-11-23T00:31:34.278Z,17.70
2022-11-23T00:34:01.036Z,17.70
2022-11-23T00:36:27.842Z,17.60
2022-11-23T00:38:54.750Z,17.70
2022-11-23T00:41:23.380Z,17.70
2022-11-23T00:43:50.257Z,17.70
2022-11-23T00:46:18.850Z,17.60
2022-11-23T00:48:47.076Z,17.60
2022-11-23T00:51:18.523Z,17.70
2022-11-23T00:53:45.293Z,17.70
2022-11-23T00:56:12.283Z,17.60
2022-11-23T00:58:39.489Z,17.60
2022-11-23T01:01:14.443Z,17.70
2022-11-23T01:03:46.265Z,17.60
2022-11-23T01:06:18.105Z,17.60
2022-11-23T01:08:49.462Z,17.60
2022-11-23T01:11:16.219Z,17.60
2022-11-23T01:13:43.074Z,17.60
2022-11-23T01:16:23.563Z,17.60
2022-11-23T01:18:54.738Z,17.60
2022-11-23T01:21:21.491Z,17.60
2022-11-23T01:23:48.229Z,17.60
2022-11-23T01:26:14.998Z,17.60
2022-11-23T01:28:41.784Z,17.60
2022-11-23T01:31:13.502Z,17.60
2022-11-23T01:33:41.484Z,17.60
2022-11-23T01:36:11.412Z,17.60
2022-11-23T01:38:38.131Z,17.60
2022-11-23T01:41:09.663Z,17.60
2022-11-23T01:43:36.706Z,17.60
2022-11-23T01:46:03.911Z,17.60
2022-11-23T01:48:45.788Z,17.60
2022-11-23T01:51:20.942Z,17.60
2022-11-23T01:53:48.465Z,17.60
2022-11-23T01:56:17.706Z,17.60
2022-11-23T01:58:46.671Z,17.60
2022-11-23T02:01:13.593Z,17.60
2022-11-23T02:03:40.878Z,17.60
2022-11-23T02:06:10.641Z,17.60
2022-11-23T02:08:38.090Z,17.60
2022-11-23T02:11:05.014Z,17.60
2022-11-23T02:13:31.756Z,17.60
2022-11-23T02:15:59.253Z,17.60
2022-11-23T02:18:27.740Z,17.60
2022-11-23T02:20:54.584Z,17.60
2022-11-23T02:23:43.086Z,17.60
2022-11-23T02:26:21.399Z,17.60
2022-11-23T02:28:51.149Z,17.60
2022-11-23T02:31:17.873Z,17.60
2022-11-23T02:33:44.761Z,17.60
2022-11-23T02:36:33.415Z,17.60
2022-11-23T02:39:00.865Z,17.60
2022-11-23T02:41:27.618Z,17.60
2022-11-23T02:43:55.850Z,17.60
2022-11-23T02:46:22.573Z,17.60
2022-11-23T02:48:49.251Z,17.60
2022-11-23T02:51:15.994Z,17.60
2022-11-23T02:53:43.678Z,17.60
2022-11-23T02:56:10.393Z,17.60
2022-11-23T02:58:37.136Z,17.60
2022-11-23T03:01:03.894Z,17.60
2022-11-23T03:03:30.642Z,17.60
2022-11-23T03:05:57.395Z,17.60
2022-11-23T03:08:24.103Z,17.60
2022-11-23T03:10:50.845Z,17.60
2022-11-23T03:13:17.590Z,17.60
2022-11-23T03:15:45.800Z,17.60
2022-11-23T03:18:12.534Z,17.60
2022-11-23T03:20:39.245Z,17.60
2022-11-23T03:23:05.973Z,17.60
2022-11-23T03:25:32.695Z,17.60
2022-11-23T03:27:59.390Z,17.60
2022-11-23T03:30:26.104Z,17.60
2022-11-23T03:32:52.875Z,17.60
2022-11-23T03:35:19.587Z,17.60
2022-11-23T03:37:47.755Z,17.60
2022-11-23T03:40:14.551Z,17.60
2022-11-23T03:42:41.605Z,17.60
2022-11-23T03:45:09.416Z,17.60
2022-11-23T03:47:36.749Z,17.60
2022-11-23T03:50:03.590Z,17.60
2022-11-23T03:52:30.293Z,17.60
2022-11-23T03:54:56.995Z,17.60
2022-11-23T03:57:23.730Z,17.60
2022-11-23T03:59:50.466Z,17.60
2022-11-23T04:02:18.352Z,17.50
2022-11-23T04:04:45.062Z,17.60
2022-11-23T04:07:11.794Z,17.60
2022-11-23T04:09:38.550Z,17.60
2022-11-23T04:12:05.533Z,17.60
2022-11-23T04:14:32.357Z,17.60
2022-11-23T04:16:59.067Z,17.60
2022-11-23T04:19:25.855Z,17.60
2022-11-23T04:21:52.617Z,17.60
2022-11-23T04:24:20.690Z,17.60
2022-11-23T04:26:47.450Z,17.60
2022-11-23T04:29:14.215Z,17.60
2022-11-23T04:31:40.932Z,17.60
2022-11-23T04:34:07.658Z,17.60
2022-11-23T04:36:34.391Z,17.60
2022-11-23T04:39:01.233Z,17.60
2022-11-23T04:41:27.948Z,17.60
2022-11-23T04:43:54.713Z,17.60
2022-11-23T04:46:22.082Z,17.60
2022-11-23T04:48:50.197Z,17.60
2022-11-23T04:51:17.088Z,17.60
2022-11-23T04:53:43.808Z,17.60
2022-11-23T04:56:10.525Z,17.60
2022-11-23T04:58:37.293Z,17.60
2022-11-23T05:01:04.208Z,17.60
2022-11-23T05:03:31.370Z,17.60
2022-11-23T05:05:58.657Z,17.60
2022-11-23T05:08:25.382Z,17.50
2022-11-23T05:10:52.862Z,17.60
2022-11-23T05:13:19.653Z,17.60
2022-11-23T05:15:46.375Z,17.60
2022-11-23T05:18:13.100Z,17.60
2022-11-23T05:20:40.259Z,17.60
2022-11-23T05:23:07.081Z,17.60
2022-11-23T05:25:34.105Z,17.60
2022-11-23T05:28:11.204Z,17.60
2022-11-23T05:30:43.741Z,17.60
2022-11-23T05:33:10.475Z,17.60
2022-11-23T05:35:37.443Z,17.60
2022-11-23T05:38:04.546Z,17.60
2022-11-23T05:40:31.305Z,17.60
2022-11-23T05:42:58.141Z,17.60
2022-11-23T05:45:25.446Z,17.60
2022-11-23T05:47:54.454Z,17.60
2022-11-23T05:50:21.592Z,17.60
2022-11-23T05:52:48.314Z,17.60
2022-11-23T05:55:15.395Z,17.50
2022-11-23T05:57:42.151Z,17.50
2022-11-23T06:00:12.474Z,17.50
2022-11-23T06:02:41.254Z,17.60
2022-11-23T06:05:09.040Z,17.60
2022-11-23T06:07:35.912Z,17.60
2022-11-23T06:10:02.887Z,17.60
2022-11-23T06:12:29.789Z,17.60
2022-11-23T06:14:56.862Z,17.60
2022-11-23T06:17:23.934Z,17.60
2022-11-23T06:19:51.222Z,17.50
2022-11-23T06:22:17.980Z,17.60
2022-11-23T06:24:44.695Z,17.60
2022-11-23T06:27:16.679Z,17.50
2022-11-23T06:29:44.597Z,17.60
2022-11-23T06:32:11.398Z,17.50
2022-11-23T06:34:38.177Z,17.50
2022-11-23T06:37:04.920Z,17.50
2022-11-23T06:39:31.958Z,17.60
2022-11-23T06:42:16.534Z,17.50
2022-11-23T06:44:45.606Z,17.60
2022-11-23T06:47:16.603Z,17.60
2022-11-23T06:49:44.460Z,17.60
2022-11-23T06:52:11.165Z,17.60
2022-11-23T06:54:37.944Z,17.60
2022-11-23T06:57:07.929Z,17.50
2022-11-23T06:59:34.888Z,17.60
2022-11-23T07:02:01.640Z,17.60
2022-11-23T07:04:29.228Z,17.50
2022-11-23T07:06:55.983Z,17.50
2022-11-23T07:09:22.718Z,17.50
2022-11-23T07:11:49.655Z,17.50
2022-11-23T07:14:16.487Z,17.50
2022-11-23T07:16:43.258Z,17.60
2022-11-23T07:19:09.979Z,17.60
2022-11-23T07:21:36.815Z,17.60
2022-11-23T07:24:03.684Z,17.50
2022-11-23T07:26:30.531Z,17.50
2022-11-23T07:28:58.308Z,17.60
2022-11-23T07:31:25.050Z,17.60
2022-11-23T07:33:51.844Z,17.50
2022-11-23T07:36:19.252Z,17.50
2022-11-23T07:38:46.035Z,17.60
2022-11-23T07:41:12.842Z,17.50
2022-11-23T07:43:39.549Z,17.60
2022-11-23T07:46:06.371Z,17.60
2022-11-23T07:48:36.340Z,17.50
2022-11-23T07:51:03.515Z,17.50
2022-11-23T07:53:31.719Z,17.60
2022-11-23T07:56:01.697Z,17.60
2022-11-23T07:58:28.867Z,17.60
2022-11-23T08:00:56.711Z,17.60
2022-11-23T08:03:28.561Z,17.50
2022-11-23T08:05:56.780Z,17.60
2022-11-23T08:08:23.952Z,17.60
2022-11-23T08:10:53.816Z,17.60
2022-11-23T08:13:21.384Z,17.60
2022-11-23T08:15:53.697Z,17.50
2022-11-23T08:18:21.498Z,17.60
2022-11-23T08:20:48.735Z,17.60
2022-11-23T08:23:15.585Z,17.60
2022-11-23T08:25:42.358Z,17.60
2022-11-23T08:28:09.400Z,17.60
2022-11-23T08:30:36.512Z,17.60
2022-11-23T08:33:06.303Z,17.60
2022-11-23T08:35:37.664Z,17.60
2022-11-23T08:38:05.304Z,17.60
2022-11-23T08:40:33.625Z,17.50
2022-11-23T08:43:00.914Z,17.60
2022-11-23T08:45:28.720Z,17.60
2022-11-23T08:48:01.094Z,17.60
2022-11-23T08:50:29.582Z,17.60
2022-11-23T08:52:57.353Z,17.60
2022-11-23T08:55:24.936Z,17.70
2022-11-23T08:57:54.526Z,17.90
2022-11-23T09:00:21.441Z,18.10
2022-11-23T09:02:48.235Z,18.10
2022-11-23T09:05:15.082Z,18.00
2022-11-23T09:07:42.101Z,17.90
2022-11-23T09:10:12.509Z,17.90
2022-11-23T09:12:41.891Z,17.80
2022-11-23T09:15:09.063Z,17.80
2022-11-23T09:17:36.197Z,17.70
2022-11-23T09:20:04.666Z,17.70
2022-11-23T09:22:31.992Z,17.70
2022-11-23T09:25:00.336Z,17.70
2022-11-23T09:27:27.237Z,17.70
2022-11-23T09:29:54.052Z,17.70
2022-11-23T09:32:20.915Z,17.70
2022-11-23T09:34:48.014Z,17.70
2022-11-23T09:37:15.393Z,17.70
2022-11-23T09:39:42.244Z,17.70
2022-11-23T09:42:25.314Z,17.70
2022-11-23T09:44:52.472Z,17.80
2022-11-23T09:47:34.568Z,17.70
2022-11-23T09:50:07.974Z,17.70
2022-11-23T09:52:36.821Z,17.70
2022-11-23T09:55:10.499Z,17.80
2022-11-23T09:57:40.764Z,17.80
2022-11-23T10:00:16.310Z,17.80
2022-11-23T10:02:43.392Z,17.80
2022-11-23T10:05:17.061Z,17.70
2022-11-23T10:08:14.894Z,17.70
2022-11-23T10:10:58.939Z,17.80
2022-11-23T10:13:45.937Z,17.80
2022-11-23T10:16:22.648Z,17.80
2022-11-23T10:19:00.187Z,17.80
2022-11-23T10:21:29.872Z,17.80
2022-11-23T10:23:57.373Z,17.80
2022-11-23T10:26:35.775Z,17.80
2022-11-23T10:29:17.348Z,17.80
2022-11-23T10:31:46.097Z,17.80
2022-11-23T10:34:17.790Z,17.80
2022-11-23T10:36:44.617Z,17.80
2022-11-23T10:39:24.740Z,17.80
2022-11-23T10:41:51.912Z,17.90
2022-11-23T10:44:22.606Z,17.90
2022-11-23T10:46:49.505Z,17.90
2022-11-23T10:49:18.470Z,17.90
2022-11-23T10:51:55.113Z,17.90
2022-11-23T10:54:22.017Z,17.80
2022-11-23T10:56:49.790Z,17.80
2022-11-23T10:59:35.212Z,17.90
2022-11-23T11:02:19.471Z,17.90
2022-11-23T11:04:46.948Z,17.80
2022-11-23T11:07:29.733Z,17.90
2022-11-23T11:09:58.838Z,17.90
2022-11-23T11:12:26.475Z,17.90
2022-11-23T11:15:05.286Z,17.90
2022-11-23T11:17:39.426Z,17.80
2022-11-23T11:20:24.147Z,17.80
2022-11-23T11:22:50.866Z,17.90
2022-11-23T11:25:38.130Z,17.80
2022-11-23T11:28:06.659Z,17.90
2022-11-23T11:30:46.118Z,17.90
2022-11-23T11:33:19.572Z,17.90
2022-11-23T11:35:50.620Z,17.80
2022-11-23T11:38:19.519Z,17.80
2022-11-23T11:40:48.758Z,17.80
2022-11-23T11:43:34.740Z,17.90
2022-11-23T11:46:31.823Z,17.80
2022-11-23T11:48:58.888Z,17.80
2022-11-23T11:51:33.086Z,17.80
2022-11-23T12:11:31.375Z,20.70
2022-11-23T12:14:01.393Z,20.80
2022-11-23T12:17:24.743Z,20.30
2022-11-23T12:20:06.709Z,19.90
2022-11-23T12:22:45.165Z,19.70
2022-11-23T12:25:24.280Z,19.60
2022-11-23T12:28:14.125Z,19.60
2022-11-23T12:30:58.530Z,19.50
2022-11-23T12:34:07.304Z,19.50
2022-11-23T12:36:43.364Z,19.60
2022-11-23T12:39:37.075Z,19.60
2022-11-23T12:42:11.023Z,19.60
2022-11-23T12:44:53.442Z,19.60
2022-11-23T12:47:35.506Z,19.60
2022-11-23T12:50:06.218Z,19.60
2022-11-23T12:52:54.693Z,19.70
2022-11-23T12:55:54.349Z,19.70
2022-11-23T12:58:27.788Z,19.60
2022-11-23T13:01:05.134Z,19.50
2022-11-23T13:04:09.133Z,19.50
2022-11-23T13:07:05.551Z,19.40
2022-11-23T13:09:53.481Z,19.40
2022-11-23T13:12:38.600Z,19.40
2022-11-23T13:15:40.580Z,19.40
2022-11-23T13:18:46.310Z,19.40
2022-11-23T13:21:37.555Z,19.30
2022-11-23T13:24:05.553Z,19.30
2022-11-23T13:26:32.424Z,19.30
2022-11-23T13:29:00.344Z,19.30
2022-11-23T13:31:31.619Z,19.40
2022-11-23T13:34:03.041Z,19.40
2022-11-23T13:36:49.468Z,19.40
2022-11-23T13:39:45.304Z,19.30
2022-11-23T13:42:12.444Z,19.30
2022-11-23T13:44:39.470Z,19.30
2022-11-23T13:47:18.332Z,19.30
2022-11-23T13:49:52.700Z,19.30
2022-11-23T13:52:25.159Z,19.30
2022-11-23T13:55:08.943Z,19.30
2022-11-23T13:57:41.025Z,19.30
2022-11-23T14:01:02.623Z,19.20
2022-11-23T14:03:50.549Z,19.30
2022-11-23T14:06:47.780Z,19.50
2022-11-23T14:09:29.913Z,19.60
2022-11-23T14:12:11.850Z,19.50
2022-11-23T14:15:08.153Z,19.40
2022-11-23T14:17:49.997Z,19.50
2022-11-23T14:20:27.649Z,19.50
2022-11-23T14:23:25.199Z,19.50
2022-11-23T14:26:21.855Z,19.40
2022-11-23T14:28:55.910Z,19.50
2022-11-23T14:31:34.892Z,19.50
2022-11-23T14:34:35.309Z,19.50
2022-11-23T14:37:30.007Z,19.50
2022-11-23T14:40:39.390Z,19.40
2022-11-23T14:43:13.409Z,19.50
2022-11-23T14:45:40.687Z,19.40
2022-11-23T14:48:27.786Z,19.40
2022-11-23T14:51:00.976Z,19.40
2022-11-23T14:53:49.155Z,19.40
2022-11-23T14:56:35.295Z,19.40
2022-11-23T14:59:10.361Z,19.40
2022-11-23T15:01:38.210Z,19.40
2022-11-23T15:04:13.694Z,19.40
2022-11-23T15:06:45.706Z,19.40
2022-11-23T15:09:45.232Z,19.40
2022-11-23T15:12:23.758Z,19.40
2022-11-23T15:14:51.334Z,19.40
2022-11-23T15:17:19.502Z,19.40
2022-11-23T15:19:59.382Z,19.40
2022-11-23T15:22:27.106Z,19.40
2022-11-23T15:24:54.227Z,19.40
2022-11-23T15:27:28.382Z,19.40
2022-11-23T15:29:56.925Z,19.40
2022-11-23T15:32:33.182Z,19.40
2022-11-23T15:35:08.445Z,19.40
2022-11-23T15:37:43.974Z,19.40
2022-11-23T15:40:17.928Z,19.40
2022-11-23T15:42:45.475Z,19.40
2022-11-23T15:45:45.987Z,19.40
2022-11-23T15:48:29.201Z,19.30
2022-11-23T15:50:58.918Z,19.40
2022-11-23T15:53:45.209Z,19.40
2022-11-23T15:56:19.927Z,19.40
2022-11-23T15:58:47.504Z,19.40
2022-11-23T16:01:14.575Z,19.40
2022-11-23T16:04:02.593Z,19.40
2022-11-23T16:06:41.020Z,19.30
2022-11-23T16:12:22.588Z,19.30
2022-11-23T16:14:49.753Z,19.30
2022-11-23T16:17:20.857Z,19.30
2022-11-23T16:19:51.950Z,19.30
2022-11-23T16:22:33.343Z,19.30
2022-11-23T16:25:09.088Z,19.30
2022-11-23T16:27:36.234Z,19.30
2022-11-23T16:30:04.689Z,19.30
2022-11-23T16:32:31.927Z,19.30
2022-11-23T16:35:09.957Z,19.20
2022-11-23T16:37:38.127Z,19.20
2022-11-23T16:40:06.552Z,19.20
2022-11-23T16:42:33.810Z,19.20
2022-11-23T16:45:00.876Z,19.20
2022-11-23T16:47:28.464Z,19.20
2022-11-23T16:49:55.529Z,19.20
2022-11-23T16:52:22.881Z,19.20
2022-11-23T16:54:50.119Z,19.20
2022-11-23T16:57:34.966Z,19.20
2022-11-23T17:00:07.682Z,19.20
2022-11-23T17:02:34.732Z,19.20
2022-11-23T17:05:01.563Z,19.20
2022-11-23T17:07:28.412Z,19.20
2022-11-23T17:09:56.458Z,19.20
2022-11-23T17:12:23.203Z,19.20
2022-11-23T17:14:49.978Z,19.20
2022-11-23T17:17:22.069Z,19.20
2022-11-23T17:19:49.811Z,19.20
2022-11-23T17:22:19.813Z,19.20
2022-11-23T17:24:47.175Z,19.10
2022-11-23T17:27:19.061Z,19.10
2022-11-23T17:29:46.143Z,19.10
2022-11-23T17:32:13.769Z,19.10
2022-11-23T17:34:41.299Z,19.10
2022-11-23T17:37:20.220Z,19.10
2022-11-23T17:39:47.622Z,19.10
2022-11-23T17:42:14.528Z,19.20
2022-11-23T17:44:41.325Z,19.20
2022-11-23T17:47:15.055Z,19.20
2022-11-23T17:49:41.826Z,19.20
2022-11-23T17:52:10.860Z,19.20
2022-11-23T17:54:38.370Z,19.10
2022-11-23T17:57:05.124Z,19.10
2022-11-23T17:59:32.436Z,19.10
2022-11-23T18:01:59.425Z,19.10
2022-11-23T18:04:26.226Z,19.10
2022-11-23T18:06:52.955Z,19.10
2022-11-23T18:09:19.682Z,19.10
2022-11-23T18:11:46.665Z,19.10
2022-11-23T18:14:13.489Z,19.10
2022-11-23T18:16:40.788Z,19.10
2022-11-23T18:19:08.641Z,19.10
2022-11-23T18:21:35.373Z,19.10
2022-11-23T18:24:04.711Z,19.10
2022-11-23T18:26:31.852Z,19.10
2022-11-23T18:28:58.550Z,19.00
2022-11-23T18:31:25.357Z,19.00
2022-11-23T18:33:52.097Z,18.70
2022-11-23T18:36:19.011Z,18.60
2022-11-23T18:38:45.971Z,18.60
2022-11-23T18:41:14.407Z,18.70
2022-11-23T18:43:42.314Z,18.80
2022-11-23T18:46:10.831Z,18.80
2022-11-23T18:48:37.750Z,18.80
2022-11-23T18:51:04.991Z,18.90
2022-11-23T18:53:32.573Z,18.90
2022-11-23T18:56:03.874Z,18.90
2022-11-23T18:58:34.832Z,19.00
2022-11-23T19:01:21.155Z,19.00
2022-11-23T19:03:49.191Z,19.00
2022-11-23T19:06:16.582Z,19.00
2022-11-23T19:08:44.900Z,19.00
2022-11-23T19:11:20.279Z,18.90
2022-11-23T19:13:49.055Z,19.00
2022-11-23T19:16:17.885Z,19.00
2022-11-23T19:18:45.176Z,19.10
2022-11-23T19:21:17.050Z,19.10
2022-11-23T19:23:44.439Z,19.10
2022-11-23T19:26:11.307Z,19.10
2022-11-23T19:28:38.151Z,19.10
2022-11-23T19:31:21.069Z,19.10
2022-11-23T19:33:51.420Z,19.10
2022-11-23T19:36:22.626Z,19.10
2022-11-23T19:38:49.703Z,19.10
2022-11-23T19:41:16.851Z,19.20
2022-11-23T19:43:48.238Z,19.20
2022-11-23T19:46:15.085Z,19.30
2022-11-23T19:48:42.651Z,19.30
2022-11-23T19:51:14.871Z,19.40
2022-11-23T19:53:44.240Z,19.40
2022-11-23T19:56:15.874Z,19.40
2022-11-23T19:58:43.063Z,19.40
2022-11-23T20:01:17.689Z,19.30
2022-11-23T20:03:46.326Z,19.40
2022-11-23T20:06:21.832Z,19.40
2022-11-23T20:08:53.144Z,19.40
2022-11-23T20:11:19.879Z,19.40
2022-11-23T20:13:46.618Z,19.40
2022-11-23T20:16:15.966Z,19.30
2022-11-23T20:18:45.095Z,19.30
2022-11-23T20:21:18.420Z,19.40
2022-11-23T20:23:46.022Z,19.40
2022-11-23T20:26:15.160Z,19.30
2022-11-23T20:28:43.244Z,19.40
2022-11-23T20:31:20.040Z,19.40
2022-11-23T20:33:50.320Z,19.40
2022-11-23T20:36:21.550Z,19.30
2022-11-23T20:38:48.454Z,19.30
2022-11-23T20:41:24.358Z,19.30
2022-11-23T20:43:58.950Z,19.20
2022-11-23T20:46:53.801Z,19.20
2022-11-23T20:49:13.577Z,19.30
2022-11-23T20:51:40.944Z,19.30
2022-11-23T20:54:08.800Z,19.30
2022-11-23T20:56:37.418Z,19.30
2022-11-23T20:59:04.735Z,19.30
2022-11-23T21:01:31.685Z,19.30
2022-11-23T21:03:58.940Z,19.30
2022-11-23T21:06:25.980Z,19.30
2022-11-23T21:08:52.808Z,19.30
2022-11-23T21:11:42.282Z,19.30
2022-11-23T21:14:19.553Z,19.30
2022-11-23T21:16:56.187Z,19.30
2022-11-23T21:19:23.753Z,19.30
2022-11-23T21:21:50.553Z,19.30
2022-11-23T21:24:17.378Z,19.30
2022-11-23T21:26:45.758Z,19.30
2022-11-23T21:29:14.501Z,19.30
2022-11-23T21:31:42.594Z,19.30
2022-11-23T21:34:20.549Z,19.30
2022-11-23T21:36:47.493Z,19.30
2022-11-23T21:39:16.039Z,19.30
2022-11-23T21:41:42.836Z,19.20
2022-11-23T21:44:09.848Z,19.20
2022-11-23T21:46:37.584Z,19.30
2022-11-23T21:49:04.470Z,19.30
2022-11-23T21:51:31.474Z,19.30
2022-11-23T21:53:59.707Z,19.30
2022-11-23T21:56:26.764Z,19.20
2022-11-23T21:58:53.573Z,19.30
2022-11-23T22:01:26.016Z,19.30
2022-11-23T22:03:54.468Z,19.20
2022-11-23T22:06:21.263Z,19.20
2022-11-23T22:08:49.900Z,19.10
2022-11-23T22:11:23.120Z,19.10
2022-11-23T22:13:56.689Z,19.10
2022-11-23T22:16:31.156Z,19.20
2022-11-23T22:18:58.171Z,19.10
2022-11-23T22:21:29.460Z,19.20
2022-11-23T22:23:56.250Z,19.20
2022-11-23T22:26:23.400Z,19.20
2022-11-23T22:28:50.835Z,19.10
2022-11-23T22:31:19.806Z,19.10
2022-11-23T22:33:47.240Z,19.10
2022-11-23T22:36:19.819Z,19.10
2022-11-23T22:38:47.923Z,19.10
2022-11-23T22:41:16.166Z,19.10
2022-11-23T22:43:43.176Z,19.10
2022-11-23T22:46:14.569Z,19.10
2022-11-23T22:48:42.745Z,19.10
2022-11-23T22:51:11.684Z,19.10
2022-11-23T22:53:44.597Z,19.10
2022-11-23T22:56:21.285Z,19.10
2022-11-23T22:58:49.002Z,19.10
2022-11-23T23:01:20.908Z,19.10
2022-11-23T23:03:48.863Z,19.10
2022-11-23T23:06:17.514Z,19.10
2022-11-23T23:08:45.624Z,19.00
2022-11-23T23:11:12.654Z,19.00
2022-11-23T23:13:39.647Z,19.00
2022-11-23T23:16:10.753Z,19.00
2022-11-23T23:18:37.697Z,19.10
2022-11-23T23:21:10.924Z,19.10
2022-11-23T23:23:42.240Z,19.10
2022-11-23T23:26:09.377Z,19.10
2022-11-23T23:28:36.342Z,19.10
2022-11-23T23:31:07.480Z,19.10
2022-11-23T23:33:34.412Z,19.10
2022-11-23T23:36:09.051Z,19.10
2022-11-23T23:38:36.796Z,19.10
2022-11-23T23:41:03.948Z,19.00
2022-11-23T23:43:30.755Z,19.00
2022-11-23T23:46:01.387Z,19.00
2022-11-23T23:48:35.504Z,19.00
2022-11-23T23:51:09.806Z,19.00
2022-11-23T23:53:36.837Z,19.00
2022-11-23T23:56:05.605Z,19.00
2022-11-23T23:58:32.390Z,19.00
